Time;durP1;ratioP1;P1;durP2;ratioP2;P2;SDS_P1;SDS_P2;PMS_P1;PMS_P2;Temp;Humidity;BMP_temperature;BMP_pressure;BME280_temperature;BME280_humidity;BME280_pressure;Samples;Min_cycle;Max_cycle;Signal;HPM_P1;HPM_P2
2023/09/30 00:01:44;;;;;;;8.35;5.22;;;;;;;;;;5044836;28;20045;-62
2023/09/30 00:04:10;;;;;;;9.27;5.53;;;;;;;;;;5044653;28;20056;-63
2023/09/30 00:06:35;;;;;;;10.85;5.40;;;;;;;;;;5043517;28;20041;-62
2023/09/30 00:09:01;;;;;;;11.75;5.07;;;;;;;;;;5044439;28;20083;-62
2023/09/30 00:11:26;;;;;;;9.02;5.03;;;;;;;;;;5046553;28;20473;-63
2023/09/30 00:13:51;;;;;;;8.95;4.90;;;;;;;;;;5046381;28;20033;-63
2023/09/30 00:16:18;;;;;;;10.68;5.30;;;;;;;;;;5046216;28;20032;-64
2023/09/30 00:18:44;;;;;;;11.30;4.95;;;;;;;;;;5045787;28;20807;-62
2023/09/30 00:21:10;;;;;;;8.30;5.00;;;;;;;;;;5044286;28;20039;-63
2023/09/30 00:23:35;;;;;;;9.80;5.35;;;;;;;;;;5044432;28;20041;-63
2023/09/30 00:26:00;;;;;;;8.57;4.68;;;;;;;;;;5045994;28;20037;-63
2023/09/30 00:28:26;;;;;;;10.73;5.10;;;;;;;;;;5046219;28;20068;-62
2023/09/30 00:30:51;;;;;;;8.07;4.80;;;;;;;;;;5027584;28;20036;-62
2023/09/30 00:33:16;;;;;;;11.68;4.93;;;;;;;;;;5044552;28;20140;-64
2023/09/30 00:35:42;;;;;;;8.55;4.82;;;;;;;;;;5044233;28;20612;-63
2023/09/30 00:38:08;;;;;;;10.77;5.22;;;;;;;;;;5045456;28;20091;-62
2023/09/30 00:40:35;;;;;;;8.43;4.90;;;;;;;;;;5026661;28;20049;-63
2023/09/30 00:43:00;;;;;;;8.23;4.93;;;;;;;;;;5044383;28;20041;-63
2023/09/30 00:45:26;;;;;;;8.50;4.57;;;;;;;;;;5043997;28;20523;-63
2023/09/30 00:47:51;;;;;;;8.75;4.60;;;;;;;;;;5042834;28;20036;-63
2023/09/30 00:50:17;;;;;;;6.72;4.88;;;;;;;;;;5043451;28;20106;-63
2023/09/30 00:52:42;;;;;;;7.97;4.78;;;;;;;;;;5044510;28;20080;-64
2023/09/30 00:55:08;;;;;;;9.23;4.75;;;;;;;;;;5043877;28;20082;-64
2023/09/30 00:57:33;;;;;;;7.93;4.90;;;;;;;;;;5044632;28;20036;-63
2023/09/30 00:59:58;;;;;;;9.43;5.18;;;;;;;;;;5044170;28;20076;-63
2023/09/30 01:02:24;;;;;;;7.43;4.43;;;;;;;;;;5044677;28;20596;-61
2023/09/30 01:04:49;;;;;;;11.20;5.30;;;;;;;;;;5045254;28;20031;-62
2023/09/30 01:07:14;;;;;;;9.98;4.97;;;;;;;;;;5042698;28;20287;-63
2023/09/30 01:09:40;;;;;;;9.30;5.13;;;;;;;;;;5044905;28;20102;-63
2023/09/30 01:12:05;;;;;;;8.30;5.00;;;;;;;;;;5022787;28;20402;-63
2023/09/30 01:14:31;;;;;;;7.75;4.72;;;;;;;;;;5025055;28;20025;-62
2023/09/30 01:16:57;;;;;;;7.43;4.55;;;;;;;;;;5042476;28;20089;-62
2023/09/30 01:19:24;;;;;;;10.35;4.70;;;;;;;;;;5046655;28;20056;-63
2023/09/30 01:21:51;;;;;;;10.35;5.00;;;;;;;;;;5045028;28;20126;-63
2023/09/30 01:24:16;;;;;;;10.05;4.82;;;;;;;;;;5043679;28;20045;-63
2023/09/30 01:26:44;;;;;;;8.52;4.30;;;;;;;;;;5044258;28;20044;-63
2023/09/30 01:29:10;;;;;;;10.18;4.65;;;;;;;;;;5043663;28;20028;-64
2023/09/30 01:31:36;;;;;;;7.18;4.47;;;;;;;;;;5040615;28;20041;-63
2023/09/30 01:34:01;;;;;;;8.77;4.90;;;;;;;;;;5044431;28;20064;-63
2023/09/30 01:36:26;;;;;;;9.17;4.70;;;;;;;;;;5026490;28;20075;-63
2023/09/30 01:38:52;;;;;;;10.02;5.13;;;;;;;;;;5042359;28;20295;-62
2023/09/30 01:41:17;;;;;;;7.40;4.57;;;;;;;;;;5042839;28;20025;-63
2023/09/30 01:43:43;;;;;;;8.50;4.72;;;;;;;;;;5043901;28;20283;-62
2023/09/30 01:46:08;;;;;;;8.35;4.82;;;;;;;;;;5042586;28;20033;-64
2023/09/30 01:48:34;;;;;;;9.27;4.97;;;;;;;;;;5044110;28;20059;-63
2023/09/30 01:50:59;;;;;;;7.72;4.90;;;;;;;;;;5042873;28;20037;-63
2023/09/30 01:53:25;;;;;;;8.38;5.30;;;;;;;;;;5042842;28;20507;-63
2023/09/30 01:55:50;;;;;;;8.23;4.78;;;;;;;;;;5043388;28;20120;-64
2023/09/30 01:58:15;;;;;;;10.25;5.15;;;;;;;;;;5044920;28;20515;-64
2023/09/30 02:00:41;;;;;;;9.40;4.70;;;;;;;;;;5042603;28;20053;-62
2023/09/30 02:03:07;;;;;;;9.32;4.80;;;;;;;;;;5030942;28;20833;-63
2023/09/30 02:05:32;;;;;;;7.57;4.63;;;;;;;;;;5023262;28;20037;-63
2023/09/30 02:07:57;;;;;;;7.90;4.57;;;;;;;;;;5036638;28;20164;-63
2023/09/30 02:10:23;;;;;;;7.23;4.20;;;;;;;;;;5043846;28;20044;-63
2023/09/30 02:12:48;;;;;;;8.57;4.80;;;;;;;;;;5044886;28;20360;-63
2023/09/30 02:15:14;;;;;;;5.95;4.43;;;;;;;;;;5042895;28;20033;-64
2023/09/30 02:17:39;;;;;;;7.03;5.07;;;;;;;;;;5043031;28;20044;-63
2023/09/30 02:20:12;;;;;;;7.28;4.50;;;;;;;;;;5043607;28;20506;-63
2023/09/30 02:22:38;;;;;;;8.70;5.35;;;;;;;;;;5042778;28;20044;-63
2023/09/30 02:25:07;;;;;;;8.93;4.70;;;;;;;;;;5044108;28;20048;-63
2023/09/30 02:27:32;;;;;;;9.25;4.65;;;;;;;;;;5042282;28;20041;-63
2023/09/30 02:29:57;;;;;;;9.95;4.65;;;;;;;;;;5046857;28;20048;-62
2023/09/30 02:32:23;;;;;;;7.90;4.70;;;;;;;;;;5046263;28;20211;-63
2023/09/30 02:34:50;;;;;;;9.27;5.05;;;;;;;;;;5047789;28;20279;-63
2023/09/30 02:37:15;;;;;;;10.10;4.65;;;;;;;;;;5046126;28;20036;-63
2023/09/30 02:39:41;;;;;;;7.88;4.80;;;;;;;;;;5029807;28;20634;-63
2023/09/30 02:42:06;;;;;;;7.32;4.82;;;;;;;;;;5046298;28;20420;-63
2023/09/30 02:44:31;;;;;;;10.00;4.90;;;;;;;;;;5046412;28;20119;-63
2023/09/30 02:46:56;;;;;;;10.25;5.05;;;;;;;;;;5035467;28;20707;-62
2023/09/30 02:49:22;;;;;;;9.90;5.30;;;;;;;;;;5045916;28;20143;-63
2023/09/30 02:51:47;;;;;;;8.07;4.93;;;;;;;;;;5048139;28;20036;-63
2023/09/30 02:54:15;;;;;;;7.68;4.97;;;;;;;;;;5046431;28;20115;-62
2023/09/30 02:56:40;;;;;;;8.77;5.05;;;;;;;;;;5045909;28;20049;-63
2023/09/30 02:59:07;;;;;;;9.52;5.68;;;;;;;;;;5029838;28;20467;-63
2023/09/30 03:01:32;;;;;;;8.60;4.90;;;;;;;;;;5046083;28;20800;-63
2023/09/30 03:03:57;;;;;;;10.48;5.07;;;;;;;;;;5046262;28;20029;-63
2023/09/30 03:06:23;;;;;;;9.00;4.87;;;;;;;;;;5046076;28;20041;-62
2023/09/30 03:08:48;;;;;;;8.45;4.82;;;;;;;;;;5046275;28;20370;-62
2023/09/30 03:11:13;;;;;;;7.83;4.93;;;;;;;;;;5046041;28;20041;-62
2023/09/30 03:13:42;;;;;;;9.40;5.30;;;;;;;;;;5047233;28;20278;-63
2023/09/30 03:16:07;;;;;;;10.05;5.40;;;;;;;;;;5029883;28;20090;-63
2023/09/30 03:18:33;;;;;;;10.93;5.63;;;;;;;;;;5045434;28;20459;-63
2023/09/30 03:21:00;;;;;;;8.52;5.28;;;;;;;;;;5047128;28;20530;-63
2023/09/30 03:23:28;;;;;;;10.55;5.78;;;;;;;;;;5047358;28;20045;-62
2023/09/30 03:25:56;;;;;;;8.57;5.20;;;;;;;;;;5028946;28;20041;-62
2023/09/30 03:28:21;;;;;;;10.57;5.75;;;;;;;;;;5045181;28;20033;-63
2023/09/30 03:30:47;;;;;;;9.60;5.28;;;;;;;;;;5047740;28;20040;-63
2023/09/30 03:33:12;;;;;;;8.57;5.33;;;;;;;;;;5046292;28;20680;-63
2023/09/30 03:35:38;;;;;;;9.23;5.65;;;;;;;;;;5047178;28;20322;-63
2023/09/30 03:38:04;;;;;;;10.80;5.35;;;;;;;;;;5046799;28;20088;-62
2023/09/30 03:40:33;;;;;;;7.60;5.55;;;;;;;;;;5045902;28;20040;-63
2023/09/30 03:42:58;;;;;;;9.93;5.63;;;;;;;;;;5044647;28;20135;-64
2023/09/30 03:45:24;;;;;;;8.10;5.78;;;;;;;;;;5046441;28;20639;-62
2023/09/30 03:47:50;;;;;;;9.93;5.43;;;;;;;;;;5045849;28;20021;-63
2023/09/30 03:50:16;;;;;;;14.65;5.50;;;;;;;;;;5046674;28;20095;-63
2023/09/30 03:52:44;;;;;;;10.75;5.35;;;;;;;;;;5044165;28;20128;-62
2023/09/30 03:55:11;;;;;;;9.32;5.40;;;;;;;;;;5045017;28;20029;-63
2023/09/30 03:57:37;;;;;;;11.20;5.50;;;;;;;;;;5028871;28;20477;-62
2023/09/30 04:00:06;;;;;;;9.25;5.53;;;;;;;;;;5046285;28;20040;-63
2023/09/30 04:02:31;;;;;;;12.15;5.55;;;;;;;;;;5032928;28;20021;-62
2023/09/30 04:04:57;;;;;;;9.02;5.43;;;;;;;;;;5045379;28;20090;-62
2023/09/30 04:07:27;;;;;;;11.85;5.13;;;;;;;;;;5028731;28;20067;-62
2023/09/30 04:09:52;;;;;;;8.85;5.75;;;;;;;;;;5046179;28;20036;-62
2023/09/30 04:12:17;;;;;;;11.32;6.10;;;;;;;;;;5045850;28;20394;-62
2023/09/30 04:14:43;;;;;;;10.10;5.82;;;;;;;;;;5046383;28;20202;-61
2023/09/30 04:17:09;;;;;;;8.77;5.63;;;;;;;;;;5044848;28;20512;-62
2023/09/30 04:19:34;;;;;;;11.00;5.90;;;;;;;;;;5044432;28;20127;-63
2023/09/30 04:22:00;;;;;;;8.75;5.43;;;;;;;;;;5044519;28;20048;-61
2023/09/30 04:24:25;;;;;;;9.07;5.30;;;;;;;;;;5024256;28;20116;-62
2023/09/30 04:26:52;;;;;;;11.20;5.63;;;;;;;;;;5026359;28;20025;-62
2023/09/30 04:29:18;;;;;;;9.15;5.60;;;;;;;;;;5044385;28;20097;-62
2023/09/30 04:31:43;;;;;;;11.15;5.25;;;;;;;;;;5046394;28;20136;-62
2023/09/30 04:34:09;;;;;;;13.75;5.88;;;;;;;;;;5043768;28;20107;-63
2023/09/30 04:36:37;;;;;;;11.07;5.45;;;;;;;;;;5045860;28;20037;-63
2023/09/30 04:39:04;;;;;;;11.02;5.63;;;;;;;;;;5045831;28;20029;-62
2023/09/30 04:41:29;;;;;;;13.77;5.43;;;;;;;;;;5045651;28;20563;-62
2023/09/30 04:43:55;;;;;;;10.80;5.32;;;;;;;;;;5044220;28;20029;-63
2023/09/30 04:46:23;;;;;;;9.20;5.18;;;;;;;;;;5044262;28;20040;-62
2023/09/30 04:48:48;;;;;;;10.55;5.20;;;;;;;;;;5044590;28;20037;-62
2023/09/30 04:51:16;;;;;;;8.73;5.10;;;;;;;;;;5045075;28;20045;-63
2023/09/30 04:53:41;;;;;;;10.73;5.28;;;;;;;;;;5044213;28;20056;-62
2023/09/30 04:56:07;;;;;;;9.45;5.25;;;;;;;;;;5044058;28;20055;-63
2023/09/30 04:58:32;;;;;;;10.98;5.13;;;;;;;;;;5043447;28;20037;-63
2023/09/30 05:00:58;;;;;;;9.88;5.30;;;;;;;;;;5041986;28;20045;-62
2023/09/30 05:03:24;;;;;;;7.95;4.65;;;;;;;;;;5044735;28;20627;-63
2023/09/30 05:05:49;;;;;;;9.23;5.15;;;;;;;;;;5027229;28;20412;-63
2023/09/30 05:08:16;;;;;;;14.52;5.70;;;;;;;;;;5043227;28;20029;-62
2023/09/30 05:10:41;;;;;;;8.38;5.10;;;;;;;;;;5024297;28;20029;-62
2023/09/30 05:13:07;;;;;;;8.63;5.27;;;;;;;;;;5038176;28;20044;-62
2023/09/30 05:15:35;;;;;;;10.25;5.07;;;;;;;;;;5043575;28;20363;-63
2023/09/30 05:18:00;;;;;;;10.70;5.18;;;;;;;;;;5044406;28;20033;-62
2023/09/30 05:20:25;;;;;;;8.93;5.20;;;;;;;;;;5043450;28;20064;-62
2023/09/30 05:22:51;;;;;;;9.55;5.38;;;;;;;;;;5043232;28;20061;-63
2023/09/30 05:25:16;;;;;;;9.57;5.30;;;;;;;;;;5042605;28;20029;-62
2023/09/30 05:27:42;;;;;;;7.65;4.90;;;;;;;;;;5042961;28;20401;-63
2023/09/30 05:30:08;;;;;;;8.48;5.22;;;;;;;;;;5043895;28;20037;-63
2023/09/30 05:32:34;;;;;;;7.00;5.10;;;;;;;;;;5025288;28;20029;-63
2023/09/30 05:35:02;;;;;;;9.15;5.10;;;;;;;;;;5043167;28;20052;-63
2023/09/30 05:37:28;;;;;;;11.30;5.68;;;;;;;;;;5042612;28;20043;-63
2023/09/30 05:39:53;;;;;;;10.82;5.63;;;;;;;;;;5042844;28;20044;-63
2023/09/30 05:42:19;;;;;;;11.82;5.45;;;;;;;;;;5044432;28;20412;-63
2023/09/30 05:44:44;;;;;;;10.27;5.90;;;;;;;;;;5044083;28;20144;-62
2023/09/30 05:47:10;;;;;;;9.77;6.38;;;;;;;;;;5042998;28;20480;-63
2023/09/30 05:49:36;;;;;;;12.10;6.63;;;;;;;;;;5042589;28;20072;-62
2023/09/30 05:52:02;;;;;;;15.32;6.78;;;;;;;;;;5045833;28;20087;-62
2023/09/30 05:54:28;;;;;;;11.10;6.78;;;;;;;;;;5042744;28;20029;-62
2023/09/30 05:56:53;;;;;;;12.38;6.70;;;;;;;;;;5024664;28;20029;-63
2023/09/30 05:59:19;;;;;;;13.20;7.15;;;;;;;;;;5042451;28;20163;-63
2023/09/30 06:01:46;;;;;;;15.43;6.97;;;;;;;;;;5043787;28;20812;-63
2023/09/30 06:04:11;;;;;;;13.73;7.20;;;;;;;;;;5046129;28;20386;-63
2023/09/30 06:06:36;;;;;;;11.07;7.70;;;;;;;;;;5046920;28;20048;-63
2023/09/30 06:09:01;;;;;;;10.52;6.70;;;;;;;;;;5035790;28;20120;-62
2023/09/30 06:11:30;;;;;;;10.23;7.05;;;;;;;;;;5046364;28;20737;-62
2023/09/30 06:13:55;;;;;;;13.80;6.93;;;;;;;;;;5045050;28;20456;-63
2023/09/30 06:16:21;;;;;;;12.63;7.78;;;;;;;;;;5046265;28;20032;-62
2023/09/30 06:18:46;;;;;;;15.20;7.30;;;;;;;;;;5030258;28;20436;-62
2023/09/30 06:21:12;;;;;;;14.32;7.43;;;;;;;;;;5044720;28;20056;-61
2023/09/30 06:23:38;;;;;;;10.93;7.00;;;;;;;;;;5043132;28;20078;-61
2023/09/30 06:26:03;;;;;;;12.10;7.18;;;;;;;;;;5033428;28;20033;-61
2023/09/30 06:28:31;;;;;;;11.03;7.23;;;;;;;;;;5033212;28;20481;-60
2023/09/30 06:30:56;;;;;;;12.95;6.90;;;;;;;;;;5031041;28;20302;-62
2023/09/30 06:33:22;;;;;;;12.00;6.50;;;;;;;;;;5042809;28;20485;-61
2023/09/30 06:35:50;;;;;;;12.55;6.47;;;;;;;;;;5046241;28;20036;-62
2023/09/30 06:38:18;;;;;;;11.25;6.38;;;;;;;;;;5047248;28;20033;-61
2023/09/30 06:40:45;;;;;;;14.23;6.43;;;;;;;;;;5046550;28;20139;-61
2023/09/30 06:43:10;;;;;;;12.32;6.18;;;;;;;;;;5043561;28;20044;-60
2023/09/30 06:45:41;;;;;;;15.70;6.20;;;;;;;;;;5030303;28;20509;-61
2023/09/30 06:48:06;;;;;;;11.43;6.07;;;;;;;;;;5046709;28;20044;-61
2023/09/30 06:50:31;;;;;;;10.93;5.38;;;;;;;;;;5045037;28;20045;-62
2023/09/30 06:52:57;;;;;;;10.23;6.00;;;;;;;;;;5046483;28;20546;-60
2023/09/30 06:55:22;;;;;;;12.98;6.05;;;;;;;;;;5051537;28;20043;-60
2023/09/30 06:57:47;;;;;;;12.80;6.20;;;;;;;;;;5045616;28;20154;-61
2023/09/30 07:00:13;;;;;;;11.00;5.93;;;;;;;;;;5047023;28;20327;-62
2023/09/30 07:02:38;;;;;;;12.15;6.13;;;;;;;;;;5029193;28;20068;-61
2023/09/30 07:05:10;;;;;;;11.48;5.50;;;;;;;;;;5054010;28;20556;-62
2023/09/30 07:07:36;;;;;;;10.82;5.82;;;;;;;;;;5048435;28;20473;-62
2023/09/30 07:10:01;;;;;;;12.75;5.90;;;;;;;;;;5047600;28;20167;-62
2023/09/30 07:12:27;;;;;;;10.38;5.97;;;;;;;;;;5046210;28;20029;-63
2023/09/30 07:14:52;;;;;;;10.82;5.50;;;;;;;;;;5046374;28;20037;-66
2023/09/30 07:17:18;;;;;;;11.95;5.22;;;;;;;;;;5046238;28;20105;-62
2023/09/30 07:19:43;;;;;;;8.05;5.38;;;;;;;;;;5047172;28;20048;-65
2023/09/30 07:22:09;;;;;;;12.52;5.28;;;;;;;;;;5045189;28;20033;-62
2023/09/30 07:24:34;;;;;;;9.85;4.72;;;;;;;;;;5046959;22;20053;-62
2023/09/30 07:26:59;;;;;;;11.50;4.93;;;;;;;;;;5040468;28;20731;-62
2023/09/30 07:29:25;;;;;;;8.40;5.05;;;;;;;;;;5044004;28;20144;-61
2023/09/30 07:31:50;;;;;;;10.25;4.78;;;;;;;;;;5045332;28;20155;-61
2023/09/30 07:34:16;;;;;;;8.82;4.60;;;;;;;;;;5039708;28;20064;-70
2023/09/30 07:36:41;;;;;;;11.73;4.72;;;;;;;;;;5021875;28;20040;-60
2023/09/30 07:39:06;;;;;;;10.65;4.35;;;;;;;;;;5043911;28;20420;-60
2023/09/30 07:41:36;;;;;;;9.43;4.78;;;;;;;;;;5031620;28;20533;-60
2023/09/30 07:44:03;;;;;;;7.70;4.28;;;;;;;;;;5033866;23;20042;-61
2023/09/30 07:46:28;;;;;;;9.40;4.20;;;;;;;;;;5032894;28;20037;-61
2023/09/30 07:48:55;;;;;;;10.50;4.20;;;;;;;;;;5027767;28;21953;-61
2023/09/30 07:51:20;;;;;;;7.15;4.53;;;;;;;;;;5026206;28;20045;-61
2023/09/30 07:53:45;;;;;;;8.93;4.25;;;;;;;;;;5029161;28;20049;-63
2023/09/30 07:56:11;;;;;;;11.57;4.35;;;;;;;;;;5032373;28;20963;-62
2023/09/30 07:58:36;;;;;;;7.32;4.00;;;;;;;;;;5028418;28;20038;-64
2023/09/30 08:01:01;;;;;;;9.35;4.20;;;;;;;;;;5028398;28;20045;-60
2023/09/30 08:03:26;;;;;;;7.65;4.32;;;;;;;;;;5029395;28;20049;-62
2023/09/30 08:05:52;;;;;;;7.30;3.90;;;;;;;;;;5028892;28;20091;-62
2023/09/30 08:08:17;;;;;;;8.75;4.05;;;;;;;;;;5029023;28;20876;-60
2023/09/30 08:10:42;;;;;;;9.25;3.60;;;;;;;;;;5029049;28;20099;-61
2023/09/30 08:13:09;;;;;;;8.73;4.07;;;;;;;;;;5028673;28;21027;-62
2023/09/30 08:15:35;;;;;;;8.45;4.22;;;;;;;;;;5030211;28;20036;-62
2023/09/30 08:18:02;;;;;;;12.80;4.45;;;;;;;;;;5032020;28;20045;-62
2023/09/30 08:20:27;;;;;;;16.75;4.63;;;;;;;;;;5027733;28;20056;-60
2023/09/30 08:22:53;;;;;;;11.70;4.35;;;;;;;;;;5028688;28;20039;-65
2023/09/30 08:25:18;;;;;;;10.43;3.88;;;;;;;;;;5028568;28;20041;-62
2023/09/30 08:27:45;;;;;;;9.38;4.57;;;;;;;;;;5032680;28;20151;-59
2023/09/30 08:30:10;;;;;;;10.27;4.65;;;;;;;;;;5037976;28;20036;-61
2023/09/30 08:32:36;;;;;;;30.73;6.43;;;;;;;;;;5032248;28;20040;-60
2023/09/30 08:35:02;;;;;;;10.48;3.90;;;;;;;;;;5019444;28;20025;-60
2023/09/30 08:37:28;;;;;;;9.00;4.57;;;;;;;;;;5027056;28;20033;-60
2023/09/30 08:39:53;;;;;;;7.15;3.67;;;;;;;;;;5028355;28;20583;-57
2023/09/30 08:42:19;;;;;;;9.00;4.10;;;;;;;;;;5031171;28;20029;-58
2023/09/30 08:44:45;;;;;;;8.82;4.63;;;;;;;;;;5029300;28;20300;-58
2023/09/30 08:47:10;;;;;;;6.72;4.43;;;;;;;;;;5028266;28;20044;-59
2023/09/30 08:49:39;;;;;;;8.48;4.47;;;;;;;;;;5028891;28;20055;-57
2023/09/30 08:52:05;;;;;;;11.07;4.65;;;;;;;;;;5028502;28;20036;-58
2023/09/30 08:54:31;;;;;;;6.70;4.78;;;;;;;;;;5029392;28;20036;-58
2023/09/30 08:56:56;;;;;;;9.45;4.90;;;;;;;;;;5028282;28;20056;-57
2023/09/30 08:59:22;;;;;;;12.10;5.30;;;;;;;;;;5024297;28;20033;-58
2023/09/30 09:01:47;;;;;;;8.50;5.30;;;;;;;;;;5032021;28;21430;-60
2023/09/30 09:04:12;;;;;;;9.25;4.90;;;;;;;;;;5028670;28;20096;-58
2023/09/30 09:06:37;;;;;;;12.83;5.83;;;;;;;;;;5026997;28;20037;-58
2023/09/30 09:09:16;;;;;;;10.27;5.73;;;;;;;;;;5047085;22;20311;-57
2023/09/30 09:11:42;;;;;;;10.70;5.68;;;;;;;;;;5031749;28;20644;-56
2023/09/30 09:14:08;;;;;;;11.45;6.30;;;;;;;;;;5030760;28;20021;-57
2023/09/30 09:16:33;;;;;;;10.20;6.18;;;;;;;;;;5028441;28;20033;-57
2023/09/30 09:18:59;;;;;;;10.65;5.85;;;;;;;;;;5029370;28;20021;-57
2023/09/30 09:21:26;;;;;;;11.52;6.30;;;;;;;;;;5028758;28;20701;-56
2023/09/30 09:23:51;;;;;;;11.52;6.03;;;;;;;;;;5029574;28;20022;-56
2023/09/30 09:26:24;;;;;;;9.32;5.50;;;;;;;;;;5033820;28;20456;-57
2023/09/30 09:28:49;;;;;;;10.95;5.40;;;;;;;;;;5032809;23;20045;-55
2023/09/30 09:31:21;;;;;;;9.80;4.93;;;;;;;;;;5008506;28;20090;-56
2023/09/30 09:33:47;;;;;;;11.25;5.07;;;;;;;;;;4993026;28;20292;-56
2023/09/30 09:36:12;;;;;;;11.07;5.47;;;;;;;;;;4995430;28;20493;-57
2023/09/30 09:38:53;;;;;;;6.45;4.50;;;;;;;;;;5007383;28;20517;-55
2023/09/30 09:41:18;;;;;;;8.93;4.78;;;;;;;;;;5007847;28;20053;-54
2023/09/30 09:43:43;;;;;;;9.85;4.43;;;;;;;;;;5007702;28;20242;-54
2023/09/30 09:46:09;;;;;;;10.20;5.05;;;;;;;;;;5011196;28;20091;-55
2023/09/30 09:48:37;;;;;;;12.98;6.18;;;;;;;;;;4996155;28;20052;-55
2023/09/30 09:51:07;;;;;;;9.63;4.70;;;;;;;;;;5023596;28;20076;-54
2023/09/30 09:53:34;;;;;;;7.38;4.68;;;;;;;;;;5023104;28;20037;-55
2023/09/30 09:56:00;;;;;;;9.40;4.50;;;;;;;;;;5023446;28;20044;-54
2023/09/30 09:58:25;;;;;;;10.15;4.82;;;;;;;;;;5001981;28;20042;-54
2023/09/30 10:00:51;;;;;;;11.73;4.55;;;;;;;;;;5000369;28;20088;-54
2023/09/30 10:03:17;;;;;;;8.50;4.25;;;;;;;;;;5022192;28;20037;-55
2023/09/30 10:05:42;;;;;;;6.97;4.30;;;;;;;;;;5032712;28;20445;-55
2023/09/30 10:08:09;;;;;;;10.30;4.40;;;;;;;;;;5008949;28;20060;-54
2023/09/30 10:10:37;;;;;;;11.70;4.43;;;;;;;;;;5024934;28;20047;-54
2023/09/30 10:13:03;;;;;;;8.25;4.18;;;;;;;;;;5021327;28;20048;-55
2023/09/30 10:15:29;;;;;;;6.70;3.50;;;;;;;;;;5018716;28;20034;-53
2023/09/30 10:18:04;;;;;;;7.20;4.03;;;;;;;;;;5014248;28;20049;-54
2023/09/30 10:20:33;;;;;;;7.25;4.10;;;;;;;;;;5015125;28;20327;-54
2023/09/30 10:23:17;;;;;;;10.10;4.40;;;;;;;;;;5023252;28;20041;-54
2023/09/30 10:25:47;;;;;;;10.27;4.35;;;;;;;;;;5012515;28;20133;-55
2023/09/30 10:28:31;;;;;;;8.50;3.60;;;;;;;;;;5019134;28;20052;-55
2023/09/30 10:31:24;;;;;;;7.88;3.60;;;;;;;;;;5009584;28;20033;-55
2023/09/30 10:33:59;;;;;;;6.75;3.60;;;;;;;;;;4999701;28;20048;-54
2023/09/30 10:36:28;;;;;;;9.77;3.30;;;;;;;;;;5012851;28;20034;-54
2023/09/30 10:38:53;;;;;;;5.40;3.27;;;;;;;;;;5000935;28;20495;-55
2023/09/30 10:41:39;;;;;;;7.18;3.30;;;;;;;;;;5018354;28;20044;-54
2023/09/30 10:44:27;;;;;;;9.68;3.47;;;;;;;;;;5000117;28;20040;-55
2023/09/30 10:46:53;;;;;;;5.97;3.03;;;;;;;;;;5013194;28;20045;-55
2023/09/30 10:49:24;;;;;;;7.63;3.20;;;;;;;;;;5015991;28;20458;-55
2023/09/30 10:52:02;;;;;;;12.95;3.50;;;;;;;;;;5022421;28;20033;-53
2023/09/30 10:54:28;;;;;;;8.60;3.15;;;;;;;;;;5038995;23;20159;-55
2023/09/30 10:56:53;;;;;;;6.43;2.92;;;;;;;;;;5029439;28;20521;-56
2023/09/30 10:59:22;;;;;;;7.45;2.75;;;;;;;;;;5033682;28;20147;-55
2023/09/30 11:01:48;;;;;;;7.68;2.75;;;;;;;;;;5030141;28;20035;-58
2023/09/30 11:04:15;;;;;;;11.48;3.50;;;;;;;;;;5030830;28;20533;-55
2023/09/30 11:06:40;;;;;;;11.57;3.47;;;;;;;;;;5030553;28;20045;-55
2023/09/30 11:09:08;;;;;;;28.58;4.93;;;;;;;;;;5031715;28;20053;-55
2023/09/30 11:11:37;;;;;;;28.05;4.47;;;;;;;;;;5034731;28;20047;-58
2023/09/30 11:14:05;;;;;;;15.32;3.65;;;;;;;;;;5040730;22;20055;-53
2023/09/30 11:16:40;;;;;;;11.50;3.55;;;;;;;;;;5028429;28;20033;-54
2023/09/30 11:19:07;;;;;;;14.07;3.10;;;;;;;;;;5034330;28;20143;-54
2023/09/30 11:21:33;;;;;;;9.82;3.45;;;;;;;;;;5039870;28;20049;-54
2023/09/30 11:23:58;;;;;;;11.20;3.47;;;;;;;;;;5032343;28;20025;-55
2023/09/30 11:26:33;;;;;;;11.02;3.42;;;;;;;;;;5036897;28;20041;-55
2023/09/30 11:29:27;;;;;;;6.68;3.13;;;;;;;;;;5034080;28;20128;-54
2023/09/30 11:31:52;;;;;;;8.93;3.20;;;;;;;;;;5029903;28;20053;-54
2023/09/30 11:34:19;;;;;;;6.57;3.30;;;;;;;;;;5034903;28;20022;-54
2023/09/30 11:36:51;;;;;;;8.73;2.90;;;;;;;;;;5037644;28;20090;-55
2023/09/30 11:39:24;;;;;;;8.85;3.80;;;;;;;;;;5032706;28;20112;-54
2023/09/30 11:41:49;;;;;;;6.85;3.20;;;;;;;;;;5036779;28;20045;-55
2023/09/30 11:44:16;;;;;;;5.65;3.20;;;;;;;;;;5038898;28;20377;-55
2023/09/30 11:46:52;;;;;;;7.45;3.28;;;;;;;;;;5035646;28;20047;-54
2023/09/30 11:49:24;;;;;;;6.05;3.25;;;;;;;;;;5015932;28;20042;-54
2023/09/30 11:51:49;;;;;;;7.50;3.92;;;;;;;;;;5019193;28;20106;-54
2023/09/30 11:54:14;;;;;;;8.17;3.70;;;;;;;;;;5034456;28;20488;-54
2023/09/30 11:56:39;;;;;;;8.30;3.63;;;;;;;;;;5032138;28;20390;-54
2023/09/30 11:59:05;;;;;;;7.40;3.83;;;;;;;;;;5031061;28;20814;-53
2023/09/30 12:01:32;;;;;;;7.75;3.80;;;;;;;;;;5038499;28;20079;-54
2023/09/30 12:03:57;;;;;;;6.82;3.60;;;;;;;;;;5032822;28;20091;-53
2023/09/30 12:06:23;;;;;;;7.68;3.67;;;;;;;;;;5036890;28;20029;-54
2023/09/30 12:08:48;;;;;;;6.80;3.35;;;;;;;;;;5038227;28;20036;-52
2023/09/30 12:11:15;;;;;;;7.32;3.63;;;;;;;;;;5036144;28;20490;-59
2023/09/30 12:13:41;;;;;;;9.18;3.80;;;;;;;;;;5032851;28;20476;-59
2023/09/30 12:16:06;;;;;;;8.20;3.35;;;;;;;;;;5040443;28;20041;-60
2023/09/30 12:18:32;;;;;;;5.53;3.03;;;;;;;;;;5030834;28;20041;-58
2023/09/30 12:20:57;;;;;;;6.28;3.40;;;;;;;;;;5034803;28;20098;-56
2023/09/30 12:23:23;;;;;;;7.03;3.67;;;;;;;;;;5039406;28;20040;-59
2023/09/30 12:25:48;;;;;;;6.72;4.00;;;;;;;;;;5032115;28;20064;-59
2023/09/30 12:28:15;;;;;;;6.60;3.50;;;;;;;;;;5038689;28;20099;-60
2023/09/30 12:30:40;;;;;;;10.80;3.13;;;;;;;;;;5035952;28;20295;-57
2023/09/30 12:33:06;;;;;;;9.85;3.60;;;;;;;;;;5031644;28;20528;-66
2023/09/30 12:35:32;;;;;;;8.73;4.38;;;;;;;;;;5037304;28;20071;-60
2023/09/30 12:37:57;;;;;;;7.53;3.45;;;;;;;;;;5028270;28;20064;-58
2023/09/30 12:40:23;;;;;;;7.43;3.30;;;;;;;;;;5032398;28;20463;-59
2023/09/30 12:42:48;;;;;;;5.43;3.40;;;;;;;;;;5033043;28;20060;-57
2023/09/30 12:45:14;;;;;;;4.72;3.25;;;;;;;;;;5038659;28;20545;-56
2023/09/30 12:47:39;;;;;;;8.73;3.50;;;;;;;;;;5031569;28;20116;-56
2023/09/30 12:50:05;;;;;;;5.97;3.50;;;;;;;;;;5031306;28;20136;-58
2023/09/30 12:52:32;;;;;;;10.52;3.40;;;;;;;;;;5037971;28;20116;-57
2023/09/30 12:54:57;;;;;;;8.77;3.90;;;;;;;;;;5036710;28;20034;-57
2023/09/30 12:57:22;;;;;;;9.23;3.60;;;;;;;;;;5033421;28;20030;-57
2023/09/30 12:59:49;;;;;;;7.13;3.70;;;;;;;;;;5029045;28;20045;-57
2023/09/30 13:02:14;;;;;;;4.97;3.38;;;;;;;;;;5031744;28;20032;-57
2023/09/30 13:04:43;;;;;;;5.90;3.00;;;;;;;;;;5030966;28;20068;-57
2023/09/30 13:07:11;;;;;;;6.55;3.72;;;;;;;;;;5032112;28;20041;-58
2023/09/30 13:09:37;;;;;;;6.05;3.47;;;;;;;;;;5027638;28;20139;-58
2023/09/30 13:12:05;;;;;;;7.65;3.60;;;;;;;;;;5030054;28;20033;-58
2023/09/30 13:14:30;;;;;;;9.25;3.75;;;;;;;;;;5016550;28;20046;-60
2023/09/30 13:16:56;;;;;;;7.10;3.67;;;;;;;;;;5030225;28;20030;-59
2023/09/30 13:19:22;;;;;;;7.53;4.13;;;;;;;;;;5017735;28;20060;-58
2023/09/30 13:21:47;;;;;;;6.38;4.15;;;;;;;;;;5033781;28;20516;-58
2023/09/30 13:24:13;;;;;;;7.38;3.75;;;;;;;;;;5031201;28;20046;-57
2023/09/30 13:26:39;;;;;;;5.55;3.92;;;;;;;;;;5029998;28;20068;-58
2023/09/30 13:29:05;;;;;;;7.32;3.95;;;;;;;;;;5030207;28;20069;-58
2023/09/30 13:31:30;;;;;;;9.32;3.78;;;;;;;;;;5034016;28;20605;-56
2023/09/30 13:33:55;;;;;;;10.68;4.32;;;;;;;;;;5030300;28;20034;-59
2023/09/30 13:36:21;;;;;;;8.83;3.90;;;;;;;;;;5029841;28;20037;-62
2023/09/30 13:38:46;;;;;;;5.97;3.80;;;;;;;;;;5031188;28;20291;-57
2023/09/30 13:41:12;;;;;;;7.88;3.90;;;;;;;;;;5033452;28;20657;-56
2023/09/30 13:43:38;;;;;;;8.07;4.68;;;;;;;;;;5032661;28;20139;-58
2023/09/30 13:46:06;;;;;;;8.82;3.92;;;;;;;;;;5031319;28;20045;-58
2023/09/30 13:48:31;;;;;;;8.68;4.18;;;;;;;;;;5034456;28;20476;-58
2023/09/30 13:51:03;;;;;;;9.93;4.20;;;;;;;;;;5031626;28;20114;-58
2023/09/30 13:53:28;;;;;;;8.43;4.18;;;;;;;;;;5029833;28;20144;-57
2023/09/30 13:55:54;;;;;;;6.93;3.90;;;;;;;;;;5029407;28;20128;-57
2023/09/30 13:58:19;;;;;;;10.20;4.07;;;;;;;;;;5029920;28;20041;-58
2023/09/30 14:00:53;;;;;;;6.93;3.75;;;;;;;;;;5029912;28;20402;-57
2023/09/30 14:03:19;;;;;;;7.45;4.40;;;;;;;;;;5029860;28;20049;-57
2023/09/30 14:05:45;;;;;;;6.72;3.53;;;;;;;;;;5032184;28;21614;-57
2023/09/30 14:08:10;;;;;;;9.77;3.90;;;;;;;;;;5032185;28;20038;-58
2023/09/30 14:10:36;;;;;;;6.47;4.10;;;;;;;;;;5030995;28;20040;-58
2023/09/30 14:13:01;;;;;;;8.57;3.97;;;;;;;;;;5044176;28;22031;-57
2023/09/30 14:15:28;;;;;;;8.50;3.90;;;;;;;;;;5030111;28;20071;-57
2023/09/30 14:17:55;;;;;;;6.50;3.63;;;;;;;;;;5028855;28;20597;-57
2023/09/30 14:20:20;;;;;;;7.22;3.70;;;;;;;;;;5033750;28;20508;-56
2023/09/30 14:22:46;;;;;;;5.82;3.60;;;;;;;;;;5041996;28;20033;-57
2023/09/30 14:25:11;;;;;;;6.72;3.70;;;;;;;;;;5031152;28;20530;-59
2023/09/30 14:27:37;;;;;;;8.18;4.00;;;;;;;;;;5032489;28;20069;-57
2023/09/30 14:30:04;;;;;;;8.35;3.70;;;;;;;;;;5032255;28;20026;-58
2023/09/30 14:32:29;;;;;;;8.55;3.50;;;;;;;;;;5036072;28;21667;-58
2023/09/30 14:34:55;;;;;;;5.67;3.40;;;;;;;;;;5034783;28;20064;-57